sensor_id;sensor_type;location;lat;lon;timestamp;pressure;altitude;pressure_sealevel;temperature;humidity
3697;BME280;60662;48.810;8.872;2023-06-22T06:59:57;96549.06;;;23.53;70.65
3697;BME280;60662;48.810;8.872;2023-06-22T07:02:08;96548.97;;;23.80;70.47
3697;BME280;60662;48.810;8.872;2023-06-22T07:04:19;96531.66;;;24.21;69.11
3697;BME280;60662;48.810;8.872;2023-06-22T07:06:27;96531.63;;;24.12;69.59
3697;BME280;60662;48.810;8.872;2023-06-22T07:08:58;96527.63;;;24.43;68.44
3697;BME280;60662;48.810;8.872;2023-06-22T07:11:25;96524.69;;;24.89;66.92
3697;BME280;60662;48.810;8.872;2023-06-22T07:12:26;96533.25;;;25.01;66.48
3697;BME280;60662;48.810;8.872;2023-06-22T07:14:38;96532.19;;;24.85;66.63
3697;BME280;60662;48.810;8.872;2023-06-22T07:15:40;96523.31;;;24.50;68.08
3697;BME280;60662;48.810;8.872;2023-06-22T07:16:41;96523.19;;;24.25;67.61
3697;BME280;60662;48.810;8.872;2023-06-22T07:19:02;96517.44;;;24.38;67.94
3697;BME280;60662;48.810;8.872;2023-06-22T07:20:04;96524.66;;;24.54;68.07
3697;BME280;60662;48.810;8.872;2023-06-22T07:21:14;96517.44;;;24.38;67.74
3697;BME280;60662;48.810;8.872;2023-06-22T07:22:16;96517.59;;;24.37;67.79
3697;BME280;60662;48.810;8.872;2023-06-22T07:23:17;96520.03;;;24.30;67.63
3697;BME280;60662;48.810;8.872;2023-06-22T07:25:53;96517.75;;;23.91;68.42
3697;BME280;60662;48.810;8.872;2023-06-22T07:26:54;96517.19;;;23.61;68.94
3697;BME280;60662;48.810;8.872;2023-06-22T07:28:01;96515.66;;;23.58;69.38
3697;BME280;60662;48.810;8.872;2023-06-22T07:29:03;96511.75;;;23.53;69.63
3697;BME280;60662;48.810;8.872;2023-06-22T07:30:06;96512.78;;;23.52;70.61
3697;BME280;60662;48.810;8.872;2023-06-22T07:31:07;96504.09;;;24.12;69.66
3697;BME280;60662;48.810;8.872;2023-06-22T07:32:09;96503.84;;;24.58;68.31
3697;BME280;60662;48.810;8.872;2023-06-22T07:33:10;96503.13;;;24.48;67.19
3697;BME280;60662;48.810;8.872;2023-06-22T07:34:12;96500.72;;;24.36;68.23
3697;BME280;60662;48.810;8.872;2023-06-22T07:35:14;96500.78;;;24.79;67.93
3697;BME280;60662;48.810;8.872;2023-06-22T07:36:17;96501.75;;;25.21;66.87
3697;BME280;60662;48.810;8.872;2023-06-22T07:37:19;96500.47;;;25.41;65.79
3697;BME280;60662;48.810;8.872;2023-06-22T07:38:20;96497.53;;;25.10;65.17
3697;BME280;60662;48.810;8.872;2023-06-22T07:39:22;96506.22;;;25.20;65.38
3697;BME280;60662;48.810;8.872;2023-06-22T07:40:27;96503.25;;;25.32;65.26
3697;BME280;60662;48.810;8.872;2023-06-22T07:41:29;96494.31;;;25.41;65.00
3697;BME280;60662;48.810;8.872;2023-06-22T07:42:30;96503.22;;;25.07;64.99
3697;BME280;60662;48.810;8.872;2023-06-22T07:43:34;96502.47;;;25.48;64.73
3697;BME280;60662;48.810;8.872;2023-06-22T07:44:38;96500.66;;;25.65;64.22
3697;BME280;60662;48.810;8.872;2023-06-22T07:45:39;96499.47;;;25.92;64.05
3697;BME280;60662;48.810;8.872;2023-06-22T07:46:41;96500.63;;;26.14;63.05
3697;BME280;60662;48.810;8.872;2023-06-22T07:47:43;96505.81;;;26.24;63.43
3697;BME280;60662;48.810;8.872;2023-06-22T07:48:44;96502.97;;;26.01;62.53
3697;BME280;60662;48.810;8.872;2023-06-22T07:49:46;96501.66;;;26.13;62.67
3697;BME280;60662;48.810;8.872;2023-06-22T07:50:48;96499.41;;;26.33;62.24
3697;BME280;60662;48.810;8.872;2023-06-22T07:51:49;96503.94;;;26.33;61.66
3697;BME280;60662;48.810;8.872;2023-06-22T07:52:51;96503.81;;;26.01;63.39
3697;BME280;60662;48.810;8.872;2023-06-22T07:53:54;96509.47;;;26.23;62.54
3697;BME280;60662;48.810;8.872;2023-06-22T07:54:55;96511.34;;;26.22;62.30
3697;BME280;60662;48.810;8.872;2023-06-22T07:55:56;96508.31;;;25.43;63.73
3697;BME280;60662;48.810;8.872;2023-06-22T07:56:58;96512.69;;;25.85;63.27
3697;BME280;60662;48.810;8.872;2023-06-22T07:57:59;96515.47;;;26.33;62.15
3697;BME280;60662;48.810;8.872;2023-06-22T07:59:01;96511.03;;;26.82;61.44
3697;BME280;60662;48.810;8.872;2023-06-22T08:00:06;96510.88;;;27.15;60.17
3697;BME280;60662;48.810;8.872;2023-06-22T08:01:17;96516.38;;;26.82;59.84
3697;BME280;60662;48.810;8.872;2023-06-22T08:02:20;96523.38;;;26.35;61.08
3697;BME280;60662;48.810;8.872;2023-06-22T08:03:22;96516.88;;;26.21;61.97
3697;BME280;60662;48.810;8.872;2023-06-22T08:04:23;96525.72;;;25.80;62.42
3697;BME280;60662;48.810;8.872;2023-06-22T08:05:25;96524.38;;;25.76;62.56
3697;BME280;60662;48.810;8.872;2023-06-22T08:06:26;96533.25;;;25.60;62.75
3697;BME280;60662;48.810;8.872;2023-06-22T08:07:30;96536.59;;;25.87;62.87
3697;BME280;60662;48.810;8.872;2023-06-22T08:08:36;96537.25;;;26.14;62.21
3697;BME280;60662;48.810;8.872;2023-06-22T08:09:37;96545.25;;;26.47;61.09
3697;BME280;60662;48.810;8.872;2023-06-22T08:10:39;96538.53;;;26.59;61.00
3697;BME280;60662;48.810;8.872;2023-06-22T08:11:40;96534.38;;;26.40;60.27
3697;BME280;60662;48.810;8.872;2023-06-22T08:12:42;96535.22;;;26.49;60.04
3697;BME280;60662;48.810;8.872;2023-06-22T08:13:43;96535.00;;;26.59;59.60
3697;BME280;60662;48.810;8.872;2023-06-22T08:14:45;96543.41;;;26.39;59.90
3697;BME280;60662;48.810;8.872;2023-06-22T08:15:47;96542.13;;;26.18;61.23
3697;BME280;60662;48.810;8.872;2023-06-22T08:16:50;96546.28;;;26.21;60.62
3697;BME280;60662;48.810;8.872;2023-06-22T08:17:52;96533.25;;;25.93;61.41
3697;BME280;60662;48.810;8.872;2023-06-22T08:18:54;96533.06;;;26.03;61.20
3697;BME280;60662;48.810;8.872;2023-06-22T08:19:56;96545.44;;;25.96;60.97
3697;BME280;60662;48.810;8.872;2023-06-22T08:20:58;96533.06;;;26.03;60.64
3697;BME280;60662;48.810;8.872;2023-06-22T08:21:59;96539.28;;;26.20;61.05
3697;BME280;60662;48.810;8.872;2023-06-22T08:23:01;96540.78;;;26.06;61.67
3697;BME280;60662;48.810;8.872;2023-06-22T08:24:07;96535.25;;;25.83;61.79
3697;BME280;60662;48.810;8.872;2023-06-22T08:25:10;96529.72;;;25.59;62.14
3697;BME280;60662;48.810;8.872;2023-06-22T08:26:11;96533.22;;;25.68;62.49
3697;BME280;60662;48.810;8.872;2023-06-22T08:27:13;96542.75;;;25.63;62.28
3697;BME280;60662;48.810;8.872;2023-06-22T08:28:16;96536.88;;;25.51;63.01
3697;BME280;60662;48.810;8.872;2023-06-22T08:29:17;96542.69;;;25.30;62.44
3697;BME280;60662;48.810;8.872;2023-06-22T08:30:19;96550.13;;;25.09;62.93
3697;BME280;60662;48.810;8.872;2023-06-22T08:31:20;96549.75;;;24.96;63.48
3697;BME280;60662;48.810;8.872;2023-06-22T08:32:22;96557.38;;;24.83;63.69
3697;BME280;60662;48.810;8.872;2023-06-22T08:33:23;96547.34;;;24.76;63.99
3697;BME280;60662;48.810;8.872;2023-06-22T08:34:29;96552.16;;;24.73;64.20
3697;BME280;60662;48.810;8.872;2023-06-22T08:35:31;96550.97;;;24.67;64.34
3697;BME280;60662;48.810;8.872;2023-06-22T08:36:33;96550.97;;;24.67;64.52
3697;BME280;60662;48.810;8.872;2023-06-22T08:37:42;96553.78;;;24.66;64.79
3697;BME280;60662;48.810;8.872;2023-06-22T08:38:43;96549.66;;;24.80;64.54
3697;BME280;60662;48.810;8.872;2023-06-22T08:39:46;96548.09;;;24.95;64.12
3697;BME280;60662;48.810;8.872;2023-06-22T08:40:48;96540.28;;;25.10;63.90
3697;BME280;60662;48.810;8.872;2023-06-22T08:41:49;96546.78;;;25.07;63.42
3697;BME280;60662;48.810;8.872;2023-06-22T08:42:50;96535.56;;;25.04;63.63
3697;BME280;60662;48.810;8.872;2023-06-22T08:43:52;96542.88;;;24.93;63.87
3697;BME280;60662;48.810;8.872;2023-06-22T08:44:53;96548.16;;;25.12;63.78
3697;BME280;60662;48.810;8.872;2023-06-22T08:45:55;96535.28;;;25.07;63.93
3697;BME280;60662;48.810;8.872;2023-06-22T08:46:57;96528.91;;;25.00;64.62
3697;BME280;60662;48.810;8.872;2023-06-22T08:47:58;96547.00;;;25.14;64.49
3697;BME280;60662;48.810;8.872;2023-06-22T08:49:00;96561.34;;;25.13;63.13
3697;BME280;60662;48.810;8.872;2023-06-22T08:50:01;96581.50;;;25.07;63.76
3697;BME280;60662;48.810;8.872;2023-06-22T08:51:04;96587.84;;;25.06;64.48
3697;BME280;60662;48.810;8.872;2023-06-22T08:52:06;96584.69;;;25.11;64.20
3697;BME280;60662;48.810;8.872;2023-06-22T08:53:09;96578.53;;;25.10;64.10
3697;BME280;60662;48.810;8.872;2023-06-22T08:54:10;96587.00;;;25.06;64.11
3697;BME280;60662;48.810;8.872;2023-06-22T08:55:11;96589.69;;;25.06;64.59
3697;BME280;60662;48.810;8.872;2023-06-22T08:56:13;96589.66;;;24.98;64.16
3697;BME280;60662;48.810;8.872;2023-06-22T08:57:15;96575.03;;;25.18;64.60
3697;BME280;60662;48.810;8.872;2023-06-22T08:58:17;96554.88;;;25.32;63.57
3697;BME280;60662;48.810;8.872;2023-06-22T08:59:19;96546.53;;;25.35;63.08
3697;BME280;60662;48.810;8.872;2023-06-22T09:00:21;96539.91;;;25.48;63.17
3697;BME280;60662;48.810;8.872;2023-06-22T09:01:22;96543.09;;;25.76;61.24
3697;BME280;60662;48.810;8.872;2023-06-22T09:02:25;96536.56;;;25.95;61.34
3697;BME280;60662;48.810;8.872;2023-06-22T09:03:26;96530.72;;;26.33;61.00
3697;BME280;60662;48.810;8.872;2023-06-22T09:04:28;96537.72;;;26.50;60.08
3697;BME280;60662;48.810;8.872;2023-06-22T09:05:30;96536.72;;;26.99;59.87
3697;BME280;60662;48.810;8.872;2023-06-22T09:06:32;96534.50;;;27.11;59.54
3697;BME280;60662;48.810;8.872;2023-06-22T09:07:33;96535.00;;;27.07;59.54
3697;BME280;60662;48.810;8.872;2023-06-22T09:08:36;96530.88;;;26.96;60.07
3697;BME280;60662;48.810;8.872;2023-06-22T09:09:37;96533.09;;;26.84;60.09
3697;BME280;60662;48.810;8.872;2023-06-22T09:10:39;96524.59;;;26.64;59.87
3697;BME280;60662;48.810;8.872;2023-06-22T09:11:40;96515.25;;;26.60;59.62
3697;BME280;60662;48.810;8.872;2023-06-22T09:12:42;96515.75;;;26.63;59.97
3697;BME280;60662;48.810;8.872;2023-06-22T09:13:43;96510.53;;;26.78;59.57
3697;BME280;60662;48.810;8.872;2023-06-22T09:14:46;96509.31;;;26.89;59.60
3697;BME280;60662;48.810;8.872;2023-06-22T09:15:48;96507.50;;;26.81;59.55
3697;BME280;60662;48.810;8.872;2023-06-22T09:16:49;96503.94;;;26.33;61.14
3697;BME280;60662;48.810;8.872;2023-06-22T09:17:50;96497.78;;;26.24;61.50
3697;BME280;60662;48.810;8.872;2023-06-22T09:18:55;96494.78;;;25.86;62.80
3697;BME280;60662;48.810;8.872;2023-06-22T09:19:57;96494.41;;;25.31;64.07
3697;BME280;60662;48.810;8.872;2023-06-22T09:20:58;96484.25;;;25.35;64.17
3697;BME280;60662;48.810;8.872;2023-06-22T09:22:00;96492.31;;;25.68;62.92
3697;BME280;60662;48.810;8.872;2023-06-22T09:23:01;96491.09;;;25.95;62.85
3697;BME280;60662;48.810;8.872;2023-06-22T09:24:03;96488.63;;;26.10;62.67
3697;BME280;60662;48.810;8.872;2023-06-22T09:25:05;96495.28;;;25.81;62.96
3697;BME280;60662;48.810;8.872;2023-06-22T09:26:08;96493.13;;;26.10;62.26
3697;BME280;60662;48.810;8.872;2023-06-22T09:27:09;96495.13;;;26.07;63.02
3697;BME280;60662;48.810;8.872;2023-06-22T09:28:11;96497.94;;;25.98;63.05
3697;BME280;60662;48.810;8.872;2023-06-22T09:29:12;96498.31;;;25.95;62.98
3697;BME280;60662;48.810;8.872;2023-06-22T09:30:14;96491.72;;;26.38;61.89
3697;BME280;60662;48.810;8.872;2023-06-22T09:31:15;96490.28;;;26.67;61.39
3697;BME280;60662;48.810;8.872;2023-06-22T09:32:18;96490.41;;;26.91;60.81
3697;BME280;60662;48.810;8.872;2023-06-22T09:33:19;96481.53;;;27.13;60.46
3697;BME280;60662;48.810;8.872;2023-06-22T09:34:21;96480.34;;;27.47;59.60
3697;BME280;60662;48.810;8.872;2023-06-22T09:35:22;96480.22;;;27.64;58.69
3697;BME280;60662;48.810;8.872;2023-06-22T09:36:23;96478.34;;;27.49;58.93
3697;BME280;60662;48.810;8.872;2023-06-22T09:37:25;96474.16;;;27.47;58.88
3697;BME280;60662;48.810;8.872;2023-06-22T09:38:26;96479.81;;;27.52;58.20
3697;BME280;60662;48.810;8.872;2023-06-22T09:39:28;96481.06;;;27.41;57.37
3697;BME280;60662;48.810;8.872;2023-06-22T09:40:29;96480.69;;;27.67;57.97
3697;BME280;60662;48.810;8.872;2023-06-22T09:41:31;96459.81;;;27.78;57.00
3697;BME280;60662;48.810;8.872;2023-06-22T09:42:33;96461.81;;;27.99;57.02
3697;BME280;60662;48.810;8.872;2023-06-22T09:43:35;96464.63;;;28.06;56.72
3697;BME280;60662;48.810;8.872;2023-06-22T09:44:37;96462.69;;;27.76;56.78
3697;BME280;60662;48.810;8.872;2023-06-22T09:45:38;96460.53;;;27.57;57.50
3697;BME280;60662;48.810;8.872;2023-06-22T09:46:41;96465.03;;;27.94;56.45
3697;BME280;60662;48.810;8.872;2023-06-22T09:47:42;96468.25;;;28.43;56.20
3697;BME280;60662;48.810;8.872;2023-06-22T09:48:44;96468.13;;;28.96;55.17
3697;BME280;60662;48.810;8.872;2023-06-22T09:49:45;96468.03;;;28.89;55.68
3697;BME280;60662;48.810;8.872;2023-06-22T09:50:49;96472.69;;;28.65;55.59
3697;BME280;60662;48.810;8.872;2023-06-22T09:51:51;96477.88;;;28.37;56.39
3697;BME280;60662;48.810;8.872;2023-06-22T09:52:53;96478.22;;;28.04;56.94
3697;BME280;60662;48.810;8.872;2023-06-22T09:53:56;96476.97;;;28.60;55.37
3697;BME280;60662;48.810;8.872;2023-06-22T09:54:57;96475.00;;;28.54;55.78
3697;BME280;60662;48.810;8.872;2023-06-22T09:55:59;96474.91;;;28.92;55.66
3697;BME280;60662;48.810;8.872;2023-06-22T09:57:01;96468.91;;;29.11;55.24
3697;BME280;60662;48.810;8.872;2023-06-22T09:58:03;96470.44;;;29.57;53.26
3697;BME280;60662;48.810;8.872;2023-06-22T09:59:05;96465.28;;;29.84;52.39
3697;BME280;60662;48.810;8.872;2023-06-22T10:00:18;96470.19;;;29.74;53.14
3697;BME280;60662;48.810;8.872;2023-06-22T10:01:20;96451.44;;;29.37;54.34
3697;BME280;60662;48.810;8.872;2023-06-22T10:02:22;96466.66;;;28.78;54.98
3697;BME280;60662;48.810;8.872;2023-06-22T10:03:24;96468.25;;;28.13;56.25
3697;BME280;60662;48.810;8.872;2023-06-22T10:04:26;96454.59;;;27.99;56.90
3697;BME280;60662;48.810;8.872;2023-06-22T10:05:28;96448.88;;;28.17;56.16
3697;BME280;60662;48.810;8.872;2023-06-22T10:06:30;96442.91;;;28.15;56.24
3697;BME280;60662;48.810;8.872;2023-06-22T10:07:32;96444.88;;;28.88;55.61
3697;BME280;60662;48.810;8.872;2023-06-22T10:08:33;96444.38;;;29.58;53.73
3697;BME280;60662;48.810;8.872;2023-06-22T10:09:35;96445.47;;;29.42;53.94
3697;BME280;60662;48.810;8.872;2023-06-22T10:10:36;96448.69;;;30.02;52.85
3697;BME280;60662;48.810;8.872;2023-06-22T10:11:38;96447.38;;;30.20;53.07
3697;BME280;60662;48.810;8.872;2023-06-22T10:13:06;96444.44;;;30.15;53.21
3697;BME280;60662;48.810;8.872;2023-06-22T10:14:03;96443.69;;;30.27;52.78
3697;BME280;60662;48.810;8.872;2023-06-22T10:15:05;96442.63;;;30.64;51.75
3697;BME280;60662;48.810;8.872;2023-06-22T10:16:08;96444.31;;;30.71;52.15
3697;BME280;60662;48.810;8.872;2023-06-22T10:17:09;96445.09;;;30.52;52.34
3697;BME280;60662;48.810;8.872;2023-06-22T10:18:11;96439.25;;;30.48;52.47
3697;BME280;60662;48.810;8.872;2023-06-22T10:19:12;96444.41;;;30.85;52.19
3697;BME280;60662;48.810;8.872;2023-06-22T10:20:14;96440.81;;;30.36;52.65
3697;BME280;60662;48.810;8.872;2023-06-22T10:21:16;96437.47;;;30.62;52.35
3697;BME280;60662;48.810;8.872;2023-06-22T10:22:17;96435.19;;;30.66;52.85
3697;BME280;60662;48.810;8.872;2023-06-22T10:23:19;96435.56;;;30.21;52.08
3697;BME280;60662;48.810;8.872;2023-06-22T10:24:21;96432.50;;;30.66;52.00
3697;BME280;60662;48.810;8.872;2023-06-22T10:25:22;96429.22;;;30.77;51.18
3697;BME280;60662;48.810;8.872;2023-06-22T10:26:24;96421.53;;;30.67;51.52
3697;BME280;60662;48.810;8.872;2023-06-22T10:27:26;96432.75;;;30.77;51.89
3697;BME280;60662;48.810;8.872;2023-06-22T10:28:27;96424.72;;;29.57;53.73
3697;BME280;60662;48.810;8.872;2023-06-22T10:29:32;96434.31;;;29.88;53.12
3697;BME280;60662;48.810;8.872;2023-06-22T10:30:34;96436.25;;;30.01;53.18
3697;BME280;60662;48.810;8.872;2023-06-22T10:31:36;96432.38;;;30.81;52.74
3697;BME280;60662;48.810;8.872;2023-06-22T10:32:38;96428.47;;;30.48;51.97
3697;BME280;60662;48.810;8.872;2023-06-22T10:33:40;96438.25;;;30.56;52.38
3697;BME280;60662;48.810;8.872;2023-06-22T10:34:42;96426.84;;;30.19;53.47
3697;BME280;60662;48.810;8.872;2023-06-22T10:35:44;96431.47;;;30.32;52.88
3697;BME280;60662;48.810;8.872;2023-06-22T10:36:45;96437.06;;;31.20;51.91
3697;BME280;60662;48.810;8.872;2023-06-22T10:37:49;96429.03;;;31.67;51.33
3697;BME280;60662;48.810;8.872;2023-06-22T10:38:52;96428.81;;;32.09;50.09
3697;BME280;60662;48.810;8.872;2023-06-22T10:39:54;96431.88;;;31.32;49.43
3697;BME280;60662;48.810;8.872;2023-06-22T10:40:56;96430.56;;;30.18;51.98
3697;BME280;60662;48.810;8.872;2023-06-22T10:41:59;96422.03;;;30.98;50.82
3697;BME280;60662;48.810;8.872;2023-06-22T10:43:01;96435.88;;;30.81;51.27
3697;BME280;60662;48.810;8.872;2023-06-22T10:44:02;96426.09;;;30.67;50.83
3697;BME280;60662;48.810;8.872;2023-06-22T10:45:04;96426.66;;;31.10;50.79
3697;BME280;60662;48.810;8.872;2023-06-22T10:46:06;96427.53;;;31.51;50.20
3697;BME280;60662;48.810;8.872;2023-06-22T10:47:08;96424.50;;;30.92;51.26
3697;BME280;60662;48.810;8.872;2023-06-22T10:48:09;96416.44;;;30.92;50.78
3697;BME280;60662;48.810;8.872;2023-06-22T10:49:11;96421.28;;;30.55;51.42
3697;BME280;60662;48.810;8.872;2023-06-22T10:50:12;96425.09;;;30.74;50.71
3697;BME280;60662;48.810;8.872;2023-06-22T10:51:14;96423.34;;;31.15;50.68
3697;BME280;60662;48.810;8.872;2023-06-22T10:52:15;96420.06;;;31.33;50.34
3697;BME280;60662;48.810;8.872;2023-06-22T10:53:17;96427.22;;;30.92;50.48
3697;BME280;60662;48.810;8.872;2023-06-22T10:54:18;96429.38;;;30.62;50.76
3697;BME280;60662;48.810;8.872;2023-06-22T10:55:20;96425.03;;;31.30;49.94
3697;BME280;60662;48.810;8.872;2023-06-22T10:56:22;96419.91;;;31.68;49.59
3697;BME280;60662;48.810;8.872;2023-06-22T10:57:24;96419.03;;;32.15;48.25
3697;BME280;60662;48.810;8.872;2023-06-22T10:58:25;96415.50;;;32.34;47.33
3697;BME280;60662;48.810;8.872;2023-06-22T10:59:28;96411.38;;;32.05;48.26
3697;BME280;60662;48.810;8.872;2023-06-22T11:00:30;96417.16;;;32.15;48.24
3697;BME280;60662;48.810;8.872;2023-06-22T11:01:32;96429.44;;;32.83;47.38
3697;BME280;60662;48.810;8.872;2023-06-22T11:02:37;96422.41;;;32.76;46.36
3697;BME280;60662;48.810;8.872;2023-06-22T11:03:38;96423.34;;;33.01;46.89
3697;BME280;60662;48.810;8.872;2023-06-22T11:04:40;96417.16;;;32.94;46.55
3697;BME280;60662;48.810;8.872;2023-06-22T11:05:42;96411.97;;;33.57;45.85
3697;BME280;60662;48.810;8.872;2023-06-22T11:06:43;96424.59;;;33.95;45.20
3697;BME280;60662;48.810;8.872;2023-06-22T11:07:45;96422.59;;;34.27;45.02
3697;BME280;60662;48.810;8.872;2023-06-22T11:08:47;96419.19;;;34.39;44.68
3697;BME280;60662;48.810;8.872;2023-06-22T11:10:07;96414.78;;;33.04;46.21
3697;BME280;60662;48.810;8.872;2023-06-22T11:11:08;96417.19;;;31.95;46.96
3697;BME280;60662;48.810;8.872;2023-06-22T11:12:10;96425.06;;;31.36;48.66
3697;BME280;60662;48.810;8.872;2023-06-22T11:13:11;96421.38;;;30.89;49.43
3697;BME280;60662;48.810;8.872;2023-06-22T11:14:13;96423.69;;;30.92;49.35
3697;BME280;60662;48.810;8.872;2023-06-22T11:15:15;96429.84;;;30.79;50.13
3697;BME280;60662;48.810;8.872;2023-06-22T11:16:16;96428.59;;;30.75;49.30
3697;BME280;60662;48.810;8.872;2023-06-22T11:17:18;96418.69;;;30.89;49.54
3697;BME280;60662;48.810;8.872;2023-06-22T11:18:19;96417.16;;;31.28;49.20
3697;BME280;60662;48.810;8.872;2023-06-22T11:19:21;96423.22;;;30.82;49.75
3697;BME280;60662;48.810;8.872;2023-06-22T11:20:22;96414.03;;;30.62;50.62
3697;BME280;60662;48.810;8.872;2023-06-22T11:21:24;96423.63;;;30.72;49.96
3697;BME280;60662;48.810;8.872;2023-06-22T11:22:26;96411.03;;;30.86;50.14
3697;BME280;60662;48.810;8.872;2023-06-22T11:23:27;96423.22;;;30.75;50.06
3697;BME280;60662;48.810;8.872;2023-06-22T11:24:29;96422.09;;;30.56;51.05
3697;BME280;60662;48.810;8.872;2023-06-22T11:25:30;96415.09;;;30.61;51.30
3697;BME280;60662;48.810;8.872;2023-06-22T11:26:33;96408.78;;;30.96;50.34
3697;BME280;60662;48.810;8.872;2023-06-22T11:27:34;96404.63;;;30.93;49.81
3697;BME280;60662;48.810;8.872;2023-06-22T11:28:36;96410.72;;;30.60;50.44
3697;BME280;60662;48.810;8.872;2023-06-22T11:29:37;96404.09;;;30.28;51.54
3697;BME280;60662;48.810;8.872;2023-06-22T11:30:40;96405.34;;;30.67;50.95
3697;BME280;60662;48.810;8.872;2023-06-22T11:31:42;96399.53;;;30.57;51.45
3697;BME280;60662;48.810;8.872;2023-06-22T11:32:44;96396.81;;;30.57;51.22
3697;BME280;60662;48.810;8.872;2023-06-22T11:33:46;96394.78;;;30.24;51.93
3697;BME280;60662;48.810;8.872;2023-06-22T11:34:49;96394.22;;;30.35;52.23
3697;BME280;60662;48.810;8.872;2023-06-22T11:35:50;96392.72;;;30.26;51.91
3697;BME280;60662;48.810;8.872;2023-06-22T11:36:52;96388.97;;;30.69;51.85
3697;BME280;60662;48.810;8.872;2023-06-22T11:37:53;96389.28;;;31.01;51.45
3697;BME280;60662;48.810;8.872;2023-06-22T11:38:54;96389.75;;;31.24;50.95
3697;BME280;60662;48.810;8.872;2023-06-22T11:39:56;96390.19;;;31.28;49.81
3697;BME280;60662;48.810;8.872;2023-06-22T11:41:07;96387.81;;;30.85;50.88
3697;BME280;60662;48.810;8.872;2023-06-22T11:42:09;96392.41;;;30.07;52.67
3697;BME280;60662;48.810;8.872;2023-06-22T11:43:11;96390.59;;;30.15;52.03
3697;BME280;60662;48.810;8.872;2023-06-22T11:44:13;96389.28;;;30.04;52.37
3697;BME280;60662;48.810;8.872;2023-06-22T11:45:14;96389.06;;;30.05;52.52
3697;BME280;60662;48.810;8.872;2023-06-22T11:46:15;96387.25;;;30.12;52.71
3697;BME280;60662;48.810;8.872;2023-06-22T11:47:17;96388.91;;;30.07;53.23
3697;BME280;60662;48.810;8.872;2023-06-22T11:48:18;96391.19;;;30.10;53.91
3697;BME280;60662;48.810;8.872;2023-06-22T11:49:20;96393.78;;;29.96;53.33
3697;BME280;60662;48.810;8.872;2023-06-22T11:50:21;96398.81;;;29.78;54.05
3697;BME280;60662;48.810;8.872;2023-06-22T11:51:23;96394.28;;;30.07;53.78
3697;BME280;60662;48.810;8.872;2023-06-22T11:52:24;96390.44;;;30.29;53.50
3697;BME280;60662;48.810;8.872;2023-06-22T11:53:26;96398.25;;;30.18;53.56
3697;BME280;60662;48.810;8.872;2023-06-22T11:54:28;96402.75;;;29.82;53.67
3697;BME280;60662;48.810;8.872;2023-06-22T11:55:29;96404.84;;;29.30;55.26
3697;BME280;60662;48.810;8.872;2023-06-22T11:56:31;96398.69;;;29.36;55.05
3697;BME280;60662;48.810;8.872;2023-06-22T11:57:34;96402.28;;;29.43;54.48
3697;BME280;60662;48.810;8.872;2023-06-22T11:58:36;96406.19;;;29.41;54.08
3697;BME280;60662;48.810;8.872;2023-06-22T11:59:38;96411.97;;;29.23;54.20
3697;BME280;60662;48.810;8.872;2023-06-22T12:00:39;96410.75;;;29.47;53.92
3697;BME280;60662;48.810;8.872;2023-06-22T12:01:52;96418.28;;;29.15;55.48
3697;BME280;60662;48.810;8.872;2023-06-22T12:02:53;96426.69;;;29.27;55.44
3697;BME280;60662;48.810;8.872;2023-06-22T12:03:55;96430.84;;;29.08;55.03
3697;BME280;60662;48.810;8.872;2023-06-22T12:04:57;96432.09;;;28.90;56.06
3697;BME280;60662;48.810;8.872;2023-06-22T12:05:59;96438.22;;;29.21;56.11
3697;BME280;60662;48.810;8.872;2023-06-22T12:07:01;96433.91;;;29.05;56.20
3697;BME280;60662;48.810;8.872;2023-06-22T12:08:03;96434.41;;;29.30;56.60
3697;BME280;60662;48.810;8.872;2023-06-22T12:09:05;96444.19;;;29.38;56.15
3697;BME280;60662;48.810;8.872;2023-06-22T12:10:07;96432.72;;;29.29;55.64
3697;BME280;60662;48.810;8.872;2023-06-22T12:11:08;96435.56;;;29.42;55.85
3697;BME280;60662;48.810;8.872;2023-06-22T12:12:10;96442.22;;;29.46;56.21
3697;BME280;60662;48.810;8.872;2023-06-22T12:13:11;96438.03;;;29.44;56.01
3697;BME280;60662;48.810;8.872;2023-06-22T12:14:12;96439.41;;;29.55;55.32
3697;BME280;60662;48.810;8.872;2023-06-22T12:15:14;96443.00;;;29.69;55.68
3697;BME280;60662;48.810;8.872;2023-06-22T12:16:15;96440.88;;;29.86;55.17
3697;BME280;60662;48.810;8.872;2023-06-22T12:17:17;96435.00;;;29.97;54.18
3697;BME280;60662;48.810;8.872;2023-06-22T12:18:18;96432.75;;;30.01;54.52
3697;BME280;60662;48.810;8.872;2023-06-22T12:19:22;96429.06;;;30.08;53.38
3697;BME280;60662;48.810;8.872;2023-06-22T12:20:24;96431.06;;;30.00;53.03
3697;BME280;60662;48.810;8.872;2023-06-22T12:21:26;96430.06;;;30.01;52.63
3697;BME280;60662;48.810;8.872;2023-06-22T12:22:28;96427.97;;;30.03;52.51
3697;BME280;60662;48.810;8.872;2023-06-22T12:23:30;96413.19;;;30.20;51.89
3697;BME280;60662;48.810;8.872;2023-06-22T12:24:31;96423.75;;;30.22;52.13
3697;BME280;60662;48.810;8.872;2023-06-22T12:25:33;96419.25;;;30.29;52.08
3697;BME280;60662;48.810;8.872;2023-06-22T12:26:34;96413.19;;;30.20;51.11
3697;BME280;60662;48.810;8.872;2023-06-22T12:27:36;96402.50;;;29.99;51.04
3697;BME280;60662;48.810;8.872;2023-06-22T12:28:38;96405.97;;;29.92;51.07
3697;BME280;60662;48.810;8.872;2023-06-22T12:29:40;96412.72;;;30.10;51.31
3697;BME280;60662;48.810;8.872;2023-06-22T12:30:41;96412.16;;;30.21;51.05
3697;BME280;60662;48.810;8.872;2023-06-22T12:31:42;96418.25;;;30.37;50.77
3697;BME280;60662;48.810;8.872;2023-06-22T12:32:44;96418.16;;;30.52;50.32
3697;BME280;60662;48.810;8.872;2023-06-22T12:33:45;96413.28;;;30.75;49.76
3697;BME280;60662;48.810;8.872;2023-06-22T12:34:47;96407.69;;;30.90;49.70
3697;BME280;60662;48.810;8.872;2023-06-22T12:35:48;96410.00;;;30.93;50.06
3697;BME280;60662;48.810;8.872;2023-06-22T12:36:50;96416.44;;;30.99;50.03
3697;BME280;60662;48.810;8.872;2023-06-22T12:37:52;96421.47;;;30.54;50.62
3697;BME280;60662;48.810;8.872;2023-06-22T12:38:54;96412.75;;;30.17;50.73
3697;BME280;60662;48.810;8.872;2023-06-22T12:39:56;96417.97;;;30.60;49.66
3697;BME280;60662;48.810;8.872;2023-06-22T12:40:58;96411.19;;;30.77;49.54
3697;BME280;60662;48.810;8.872;2023-06-22T12:42:00;96432.00;;;30.97;49.97
3697;BME280;60662;48.810;8.872;2023-06-22T12:43:01;96420.53;;;30.82;49.93